Flight Track Log - Related Links

Times and Time Zones

All times are in EDT time to prevent confusion due to time zone crossing. See the JBU667 flight status page for this flight to view local times or setup timezone preferences in your user account.

Time Position Orientation Groundspeed Altitude Reporting Facility
EDT Latitude Longitude Course Direction KTS MPH feet Rate Location/Type
Tue 11:03:41 PM 28.4167 -81.3167 146° Southeast 159 183 1,000  Level Orlando TRACON
Tue 11:04:41 PM 28.3667 -81.2833 150° Southeast 232 267 2,200 1,785 Climbing Orlando TRACON
Tue 11:05:42 PM 28.3167 -81.2167 130° Southeast 285 328 4,600 2,642 Climbing Orlando TRACON
Tue 11:06:00 PM 28.2341 -80.9863 148° Southeast  Level Estimated
Tue 11:07:00 PM 28.1688 -80.8790 146° Southeast  Level Estimated
Tue 11:07:20 PM 28.2675 -81.0947 115° Southeast 287 330 9,200  Level Miami Center
Tue 11:08:00 PM 28.1035 -80.7718 146° Southeast  Level Estimated
Tue 11:08:18 PM 28.2472 -80.9950 103° East 306 352 10,900  Level Miami Center
Tue 11:09:18 PM 28.1833 -80.8961 126° Southeast 340 391 13,100 1,835 Climbing Miami Center
Tue 11:10:19 PM 28.1142 -80.8372 143° Southeast 354 407 14,600 1,967 Climbing Miami Center
Tue 11:11:20 PM 28.0081 -80.7442 142° Southeast 398 458 17,100 1,820 Climbing Miami Center
Tue 11:12:21 PM 27.9264 -80.6756 143° Southeast 405 466 18,300 1,576 Climbing Miami Center
Tue 11:13:18 PM 27.8222 -80.5875 143° Southeast 420 483 20,200 1,729 Climbing Miami Center
Tue 11:14:19 PM 27.7197 -80.5208 150° Southeast 425 489 21,700 1,400 Climbing Miami Center
Tue 11:15:18 PM 27.6125 -80.4589 153° Southeast 425 489 23,000 857 Climbing Miami Center
Tue 11:16:18 PM 27.5033 -80.4017 155° Southeast 425 489 23,400 645 Climbing Miami Center
Tue 11:17:19 PM 27.3897 -80.3561 160° South 430 495 24,300 992 Climbing Miami Center
Tue 11:18:19 PM 27.2717 -80.3128 162° South 436 502 25,400 1,091 Climbing Miami Center
Tue 11:19:20 PM 27.1497 -80.2669 162° South 449 517 26,500 1,109 Climbing Miami Center
Tue 11:20:18 PM 27.0275 -80.2192 161° South 455 524 27,600 966 Climbing Miami Center
Tue 11:21:18 PM 26.9186 -80.1439 148° Southeast 454 522 28,400 793 Climbing Miami Center
Tue 11:22:19 PM 26.8483 -80.0186 122° Southeast 454 522 29,200 984 Climbing Miami Center
Tue 11:23:20 PM 26.7839 -79.9050 122° Southeast 481 554 30,400 1,210 Climbing Miami Center
Tue 11:24:18 PM 26.7094 -79.7636 120° Southeast 481 554 31,600 1,210 Climbing Miami Center
Tue 11:25:19 PM 26.6511 -79.6531 121° Southeast 474 545 32,800 1,230 Climbing Miami Center
Tue 11:26:20 PM 26.5783 -79.5164 121° Southeast 474 545 34,100 1,008 Climbing Miami Center
Tue 11:27:18 PM 26.5178 -79.4083 122° Southeast 469 540 34,800 864 Climbing Miami Center
Tue 11:28:18 PM 26.4447 -79.2769 122° Southeast 464 534 35,800 800 Climbing Miami Center
Tue 11:29:18 PM 26.3800 -79.1503 120° Southeast 459 528 36,400 600 Climbing Miami Center
Tue 11:30:18 PM 26.3128 -79.0308 122° Southeast 459 528 37,000 300 Climbing Miami Center
Tue 11:31:18 PM 26.2497 -78.9139 121° Southeast 459 528 37,000  Level Miami Center
Tue 11:32:20 PM 26.1803 -78.7897 122° Southeast 459 528 37,000  Level Miami Center
Tue 11:33:18 PM 26.1108 -78.6683 122° Southeast 464 534 37,000 50 Level Miami Center
Tue 11:34:19 PM 26.0433 -78.5542 123° Southeast 457 526 37,100  Climbing Miami Center
Tue 11:35:20 PM 25.9778 -78.4375 122° Southeast 457 526 37,000 -50 Descending Miami Center
Tue 11:36:18 PM 25.9122 -78.3189 122° Southeast 457 526 37,000  Level Miami Center
Tue 11:37:18 PM 25.8464 -78.1958 121° Southeast 457 526 37,000  Level Miami Center
Tue 11:38:20 PM 25.7806 -78.0797 122° Southeast 457 526 37,000  Level Miami Center
Tue 11:39:18 PM 25.7167 -77.9636 121° Southeast 457 526 37,000  Level Miami Center
Tue 11:40:18 PM 25.6506 -77.8456 122° Southeast 457 526 37,000  Level Miami Center
Tue 11:41:18 PM 25.5844 -77.7275 122° Southeast 457 526 37,000  Level Miami Center
Tue 11:42:19 PM 25.5183 -77.6117 122° Southeast 457 526 37,000  Level Miami Center
Tue 11:43:18 PM 25.4539 -77.4939 121° Southeast 457 526 37,000  Level Miami Center
Tue 11:44:21 PM 25.3958 -77.3903 122° Southeast 451 519 37,000  Level Miami Center
Tue 11:45:18 PM 25.3294 -77.2725 122° Southeast 451 519 37,000  Level Miami Center
Tue 11:46:18 PM 25.2608 -77.1575 123° Southeast 451 519 37,000  Level Miami Center
Tue 11:47:20 PM 25.1961 -77.0403 121° Southeast 451 519 37,000  Level Miami Center
Tue 11:48:21 PM 25.1272 -76.9253 123° Southeast 451 519 37,000  Level Miami Center
Tue 11:49:18 PM 25.0625 -76.8106 122° Southeast 446 513 37,000  Level Miami Center
Tue 11:50:19 PM 24.9975 -76.7006 123° Southeast 441 507 37,000  Level Miami Center
Tue 11:51:18 PM 24.9306 -76.5861 123° Southeast 436 502 37,000  Level Miami Center
Tue 11:52:18 PM 24.8633 -76.4694 122° Southeast 441 507 37,000  Level Miami Center
Tue 11:53:18 PM 24.7961 -76.3528 122° Southeast 441 507 37,000  Level Miami Center
Tue 11:54:18 PM 24.7267 -76.2389 124° Southeast 441 507 37,000  Level Miami Center
Tue 11:55:18 PM 24.6572 -76.1181 122° Southeast 429 494 37,000  Level Miami Center
Tue 11:56:20 PM 24.5897 -76.0064 124° Southeast 434 499 37,000  Level Miami Center
Tue 11:57:20 PM 24.5264 -75.8925 121° Southeast 434 499 37,000  Level Miami Center
Tue 11:58:19 PM 24.4608 -75.7811 123° Southeast 434 499 37,000  Level Miami Center
Tue 11:59:18 PM 24.3953 -75.6722 123° Southeast 434 499 37,000  Level Miami Center
Wed 12:00:18 AM 24.3272 -75.5589 123° Southeast 434 499 37,000  Level Miami Center
Wed 12:01:18 AM 24.2594 -75.4433 123° Southeast 439 505 37,000  Level Miami Center
Wed 12:02:18 AM 24.1936 -75.3347 124° Southeast 434 499 37,000  Level Miami Center
Wed 12:03:19 AM 24.1275 -75.2217 123° Southeast 434 499 37,000  Level Miami Center
Wed 12:04:20 AM 24.0678 -75.1200 123° Southeast 434 499 37,000  Level Miami Center
Wed 12:05:20 AM 23.9997 -75.0097 124° Southeast 434 499 37,000  Level Miami Center
Wed 12:06:18 AM 23.9333 -74.8947 122° Southeast 434 499 37,000  Level Miami Center
Wed 12:07:18 AM 23.8650 -74.7844 124° Southeast 434 499 37,000  Level Miami Center
Wed 12:08:19 AM 23.7986 -74.6764 124° Southeast 434 499 37,000  Level Miami Center
Wed 12:09:18 AM 23.7300 -74.5619 123° Southeast 439 505 37,000  Level Miami Center
Wed 12:10:18 AM 23.6636 -74.4519 123° Southeast 433 498 37,000  Level Miami Center
Wed 12:11:18 AM 23.5950 -74.3422 124° Southeast 433 498 37,000  Level Miami Center
Wed 12:12:18 AM 23.5283 -74.2303 123° Southeast 433 498 37,000  Level Miami Center
Wed 12:13:20 AM 23.4594 -74.1208 124° Southeast 433 498 37,000  Level Miami Center
Wed 12:14:19 AM 23.3947 -74.0133 123° Southeast 434 499 37,000  Level Miami Center
Wed 12:15:20 AM 23.3278 -73.9019 123° Southeast 434 499 37,000  Level Miami Center
Wed 12:16:18 AM 23.2567 -73.7950 126° Southeast 434 499 37,000  Level Miami Center
Wed 12:17:18 AM 23.1897 -73.6836 123° Southeast 434 499 37,000  Level Miami Center
Wed 12:18:20 AM 23.1225 -73.5725 123° Southeast 434 499 37,000  Level Miami Center
Wed 12:19:18 AM 23.0553 -73.4636 124° Southeast 434 499 37,000  Level Miami Center
Wed 12:20:19 AM 22.9881 -73.3525 123° Southeast 434 499 37,000  Level Miami Center
Wed 12:21:19 AM 22.9167 -73.2417 125° Southeast 439 505 37,000  Level Miami Center
Wed 12:22:19 AM 22.8406 -73.1200 124° Southeast 439 505 37,000  Level Miami Center
Wed 12:23:18 AM 22.7839 -73.0247 123° Southeast 434 499 37,000  Level Miami Center
Wed 12:24:21 AM 22.7142 -72.9142 124° Southeast 434 499 37,000  Level Miami Center
Wed 12:25:19 AM 22.6464 -72.8017 123° Southeast 434 499 37,000  Level Miami Center
Wed 12:26:18 AM 22.5767 -72.6914 124° Southeast 434 499 37,000  Level Miami Center
Wed 12:27:19 AM 22.5089 -72.5833 124° Southeast 439 505 37,000  Level Miami Center
Wed 12:28:18 AM 22.4389 -72.4733 125° Southeast 439 505 37,000  Level Miami Center
Wed 12:29:19 AM 22.3689 -72.3636 125° Southeast 439 505 37,000  Level Miami Center
Wed 12:30:18 AM 22.2989 -72.2539 125° Southeast 439 505 37,000  Level Miami Center
Wed 12:31:18 AM 22.2308 -72.1442 124° Southeast 434 499 37,000  Level Miami Center
Wed 12:32:18 AM 22.1625 -72.0344 124° Southeast 439 505 37,000  Level Miami Center
Wed 12:33:18 AM 22.0922 -71.9250 125° Southeast 439 505 37,000  Level Miami Center
Wed 12:34:18 AM 22.0239 -71.8158 124° Southeast 439 505 37,000  Level Miami Center
Wed 12:35:20 AM 21.9514 -71.7044 125° Southeast 439 505 37,000  Level Miami Center
Wed 12:36:19 AM 21.8808 -71.5931 124° Southeast 439 505 37,000  Level Miami Center
Wed 12:37:18 AM 21.8103 -71.4864 125° Southeast 444 511 37,000  Level Miami Center
Wed 12:38:20 AM 21.7394 -71.3733 124° Southeast 444 511 37,000  Level Miami Center
Wed 12:39:18 AM 21.6689 -71.2622 124° Southeast 444 511 37,000  Level Miami Center
Wed 12:40:18 AM 21.6000 -71.1492 123° Southeast 450 518 37,000  Level Miami Center
Wed 12:41:19 AM 21.5289 -71.0319 123° Southeast 457 526 37,000  Level Miami Center
Wed 12:42:20 AM 21.4450 -70.9108 127° Southeast 463 533 37,000  Level Miami Center
Wed 12:43:18 AM 21.3717 -70.8006 126° Southeast 458 527 37,000  Level Miami Center
Wed 12:44:18 AM 21.2983 -70.6881 125° Southeast 458 527 37,000  Level Miami Center
Wed 12:45:18 AM 21.2253 -70.5781 125° Southeast 458 527 37,000  Level Miami Center
Wed 12:46:18 AM 21.1539 -70.4681 125° Southeast 458 527 37,000  Level Miami Center
Wed 12:47:20 AM 21.0803 -70.3539 125° Southeast 463 533 37,000 49 Level Miami Center
Wed 12:48:20 AM 21.0044 -70.2353 124° Southeast 468 539 37,100  Climbing Miami Center
Wed 12:49:18 AM 20.9286 -70.1214 125° Southeast 473 544 37,000 -50 Descending Miami Center
Wed 12:50:19 AM 20.8528 -70.0056 125° Southeast 478 550 37,000  Level Miami Center
Wed 12:51:20 AM 20.7767 -69.8897 125° Southeast 478 550 37,000  Level Miami Center
Wed 12:52:20 AM 20.6986 -69.7742 126° Southeast 478 550 37,000  Level Miami Center
Wed 12:53:20 AM 20.6222 -69.6542 124° Southeast 478 550 37,000  Level Miami Center
Wed 12:54:18 AM 20.5439 -69.5389 126° Southeast 478 550 37,000  Level Miami Center
Wed 12:55:20 AM 20.4675 -69.4236 125° Southeast 478 550 37,000  Level Miami Center
Wed 12:56:18 AM 20.3892 -69.3064 125° Southeast 478 550 37,000  Level Miami Center
Wed 12:57:18 AM 20.3147 -69.1892 124° Southeast 478 550 37,000  Level Miami Center
Wed 12:58:18 AM 20.2381 -69.0719 125° Southeast 478 550 37,000  Level Miami Center
Wed 12:59:18 AM 20.1572 -68.9575 127° Southeast 478 550 37,000  Level Miami Center
Wed 01:00:20 AM 20.0828 -68.8406 124° Southeast 478 550 37,000  Level Miami Center
Wed 01:01:19 AM 20.0061 -68.7261 125° Southeast 478 550 37,000  Level Miami Center
Wed 01:02:20 AM 19.9133 -68.6261 135° Southeast 478 550 37,000  Level Miami Center
Wed 01:03:18 AM 19.8231 -68.5303 135° Southeast 468 539 37,000  Level Miami Center
Wed 01:04:18 AM 19.7244 -68.4372 138° Southeast 468 539 37,000  Level Miami Center
Wed 01:05:07 AM 19.6333 -68.3500 138° Southeast 460 529 37,000  Level San Juan Center
Wed 01:06:07 AM 19.5667 -68.2833 137° Southeast 480 552 37,000  Level San Juan Center
Wed 01:07:08 AM 19.4500 -68.1667 137° Southeast 450 518 37,000  Level San Juan Center
Wed 01:08:08 AM 19.3667 -68.0667 131° Southeast 470 541 37,000  Level San Juan Center
Wed 01:09:08 AM 19.2667 -67.9833 142° Southeast 460 529 37,000 -793 Level San Juan Center
Wed 01:10:09 AM 19.1667 -67.8833 137° Southeast 470 541 35,400 -2,479 Descending San Juan Center
Wed 01:11:09 AM 19.0833 -67.8000 137° Southeast 460 529 32,000 -2,950 Descending San Juan Center
Wed 01:12:09 AM 18.9833 -67.7000 137° Southeast 480 552 29,500 -2,400 Descending San Juan Center
Wed 01:13:09 AM 18.8833 -67.6000 137° Southeast 480 552 27,200 -2,231 Descending San Juan Center
Wed 01:14:10 AM 18.7833 -67.5000 137° Southeast 460 529 25,000 -2,132 Descending San Juan Center
Wed 01:15:10 AM 18.7000 -67.4167 137° Southeast 460 529 22,900 -2,200 Descending San Juan Center
Wed 01:16:10 AM 18.6000 -67.3167 137° Southeast 440 506 20,600 -2,083 Descending San Juan Center
Wed 01:17:11 AM 18.5000 -67.2333 142° Southeast 420 483 18,700 -1,934 Descending San Juan Center
Wed 01:18:11 AM 18.4167 -67.1667 143° Southeast 390 449 16,700 -1,950 Descending San Juan Center
Wed 01:19:11 AM 18.3500 -67.0833 130° Southeast 370 426 14,800 -2,132 Descending San Juan Center
Wed 01:20:12 AM 18.2833 -67.0167 136° Southeast 350 403 12,400 -2,033 Descending San Juan Center
Wed 01:21:12 AM 18.2167 -66.9500 136° Southeast 350 403 10,700 -1,250 Descending San Juan Center
Wed 01:22:12 AM 18.1500 -66.8833 136° Southeast 310 357 9,900 -1,091 Descending San Juan Center
Wed 01:23:13 AM 18.0833 -66.8333 145° Southeast 290 334 8,500 -1,438 Descending San Juan Center
Wed 01:24:13 AM 18.0333 -66.7667 128° Southeast 280 322 7,000 -950 Descending San Juan Center
Wed 01:25:13 AM 17.9667 -66.7167 144° Southeast 250 288 6,600 -600 Descending San Juan Center
Wed 01:26:13 AM 17.9167 -66.6833 148° Southeast 230 265 5,800 -397 Descending San Juan Center
Wed 01:27:14 AM 17.8833 -66.6333 125° Southeast 200 230 5,800 -446 Level San Juan Center
Wed 01:28:14 AM 17.8667 -66.5833 109° East 170 196 4,900 -900 Descending San Juan Center
Wed 01:31:00 AM 18.0000 -66.5500 25° Northeast  Level FlightAware Approximate
Wed 01:38:00 AM 18.0083 -66.5630 25° Northeast  Level Estimated
Wed 01:39:00 AM 18.0083 -66.5630 25° Northeast  Level Estimated
Wed 01:40:00 AM 18.0083 -66.5630 25° Northeast  Level Estimated
Wed 01:41:00 AM 18.0083 -66.5630 25° Northeast  Level Estimated
Wed 01:42:00 AM 18.0083 -66.5630 25° Northeast  Level Estimated
Wed 01:43:00 AM 18.0083 -66.5630 25° Northeast  Level Estimated

Login

Don't have an account? Register now (free) for customized features, flight alerts, and more!